Página principal
METAR-TAF:

METAR-TAF

Aeroportos :

Aeroporto Internacional de Belgrado

Belgrado, Sérvia

latitude: 44-49N, longitude: 020-17E, altura: 96 m

Observação actual do tempo

O boletim foi feito há 11 minutos, às 22:30 UTC
Vento 11 kt de sudeste
Temperatura 15°C
Humidade 67%
Pressão 1014 hPa
Visibilidade 10 km ou mais
sem nuvens abaixo de 1500 metros e sem cumulonimbus

METAR: LYBE 152230Z 14011KT CAVOK 15/09 Q1014 NOSIG

Hora: 23:41 (22:41 UTC)

Previsão

O boletim foi feito há 5 horas e 41 minutos, às 17:00 UTC
Previsão válida de 15 às 18 UTC a 16 às 18 UTC
Vento 12 kt de sudeste
Visibilidade 10 km ou mais
sem nuvens abaixo de 1500 metros e sem cumulonimbus
Temporariamente
de 15 às 18 UTC a 16 às 18 UTC
Vento 15 kt de sudeste com rajadas de 25 kt

TAF: LYBE 151700Z 1518/1618 13012KT CAVOK TX19/1612Z TN13/1605Z TEMPO 1518/1618 14015G25KT

Observações e previsões do tempo de mais de 4000 aeroportos (mensagens METAR e TAF).

As estações disponíveis são os pontos amarelos e vermelhos sobre o mapa.

Mova o rato sobre o mapa para ver o nome da estação.

Depois clique no ponto para visualizar as observações e previsões meteorológicas.

Para alterar o mapa : clique nos botões verdes com uma cruz preta para aumentar o zoom; no botão verde com uma pitada de zoom; ou nas setas verdes para mapas adjacentes.


METAR-TAF: